sensor_id;sensor_type;location;lat;lon;timestamp;P1;durP1;ratioP1;P2;durP2;ratioP2
34737;SDS011;39910;47.154;27.614;2023-02-17T00:00:51;9.77;;;9.27;;
34737;SDS011;39910;47.154;27.614;2023-02-17T00:03:17;9.57;;;9.07;;
34737;SDS011;39910;47.154;27.614;2023-02-17T00:05:42;9.77;;;9.27;;
34737;SDS011;39910;47.154;27.614;2023-02-17T00:08:07;9.50;;;9.00;;
34737;SDS011;39910;47.154;27.614;2023-02-17T00:10:32;9.13;;;8.70;;
34737;SDS011;39910;47.154;27.614;2023-02-17T00:12:59;8.68;;;8.27;;
34737;SDS011;39910;47.154;27.614;2023-02-17T00:15:24;9.30;;;8.80;;
34737;SDS011;39910;47.154;27.614;2023-02-17T00:17:49;9.38;;;8.88;;
34737;SDS011;39910;47.154;27.614;2023-02-17T00:20:15;9.10;;;8.63;;
34737;SDS011;39910;47.154;27.614;2023-02-17T00:22:40;9.40;;;8.90;;
34737;SDS011;39910;47.154;27.614;2023-02-17T00:25:05;9.27;;;8.77;;
34737;SDS011;39910;47.154;27.614;2023-02-17T00:27:32;10.15;;;9.55;;
34737;SDS011;39910;47.154;27.614;2023-02-17T00:29:57;9.20;;;8.70;;
34737;SDS011;39910;47.154;27.614;2023-02-17T00:32:23;8.50;;;8.10;;
34737;SDS011;39910;47.154;27.614;2023-02-17T00:34:50;8.82;;;8.40;;
34737;SDS011;39910;47.154;27.614;2023-02-17T00:37:16;8.77;;;8.38;;
34737;SDS011;39910;47.154;27.614;2023-02-17T00:39:41;9.02;;;8.55;;
34737;SDS011;39910;47.154;27.614;2023-02-17T00:42:06;9.05;;;8.60;;
34737;SDS011;39910;47.154;27.614;2023-02-17T00:44:31;9.23;;;8.73;;
34737;SDS011;39910;47.154;27.614;2023-02-17T00:46:57;9.18;;;8.68;;
34737;SDS011;39910;47.154;27.614;2023-02-17T00:49:23;8.88;;;8.40;;
34737;SDS011;39910;47.154;27.614;2023-02-17T00:51:48;9.90;;;9.35;;
34737;SDS011;39910;47.154;27.614;2023-02-17T00:54:14;9.68;;;9.15;;
34737;SDS011;39910;47.154;27.614;2023-02-17T00:56:40;9.10;;;8.60;;
34737;SDS011;39910;47.154;27.614;2023-02-17T00:59:06;9.48;;;8.98;;
34737;SDS011;39910;47.154;27.614;2023-02-17T01:01:32;9.02;;;8.52;;
34737;SDS011;39910;47.154;27.614;2023-02-17T01:03:57;8.77;;;8.38;;
34737;SDS011;39910;47.154;27.614;2023-02-17T01:06:33;9.48;;;8.98;;
34737;SDS011;39910;47.154;27.614;2023-02-17T01:08:58;9.15;;;8.65;;
34737;SDS011;39910;47.154;27.614;2023-02-17T01:11:25;9.25;;;8.75;;
34737;SDS011;39910;47.154;27.614;2023-02-17T01:13:51;9.23;;;8.73;;
34737;SDS011;39910;47.154;27.614;2023-02-17T01:16:17;8.98;;;8.50;;
34737;SDS011;39910;47.154;27.614;2023-02-17T01:18:42;8.90;;;8.50;;
34737;SDS011;39910;47.154;27.614;2023-02-17T01:21:21;8.93;;;8.50;;
34737;SDS011;39910;47.154;27.614;2023-02-17T01:23:48;8.48;;;8.07;;
34737;SDS011;39910;47.154;27.614;2023-02-17T01:26:14;9.30;;;8.80;;
34737;SDS011;39910;47.154;27.614;2023-02-17T01:28:41;8.73;;;8.32;;
34737;SDS011;39910;47.154;27.614;2023-02-17T01:31:07;8.90;;;8.50;;
34737;SDS011;39910;47.154;27.614;2023-02-17T01:33:32;9.70;;;9.20;;
34737;SDS011;39910;47.154;27.614;2023-02-17T01:36:07;9.95;;;9.43;;
34737;SDS011;39910;47.154;27.614;2023-02-17T01:38:33;9.27;;;8.77;;
34737;SDS011;39910;47.154;27.614;2023-02-17T01:40:58;9.15;;;8.68;;
34737;SDS011;39910;47.154;27.614;2023-02-17T01:43:24;9.13;;;8.65;;
34737;SDS011;39910;47.154;27.614;2023-02-17T01:48:20;9.18;;;8.68;;
34737;SDS011;39910;47.154;27.614;2023-02-17T01:50:47;9.63;;;9.13;;
34737;SDS011;39910;47.154;27.614;2023-02-17T01:53:15;8.90;;;8.50;;
34737;SDS011;39910;47.154;27.614;2023-02-17T01:55:41;9.27;;;8.77;;
34737;SDS011;39910;47.154;27.614;2023-02-17T01:58:08;9.50;;;9.00;;
34737;SDS011;39910;47.154;27.614;2023-02-17T02:00:35;9.18;;;8.70;;
34737;SDS011;39910;47.154;27.614;2023-02-17T02:03:00;8.73;;;8.32;;
34737;SDS011;39910;47.154;27.614;2023-02-17T02:05:27;8.50;;;8.10;;
34737;SDS011;39910;47.154;27.614;2023-02-17T02:07:52;8.80;;;8.40;;
34737;SDS011;39910;47.154;27.614;2023-02-17T02:10:18;9.43;;;8.93;;
34737;SDS011;39910;47.154;27.614;2023-02-17T02:12:43;9.15;;;8.65;;
34737;SDS011;39910;47.154;27.614;2023-02-17T02:15:13;9.43;;;8.93;;
34737;SDS011;39910;47.154;27.614;2023-02-17T02:27:45;9.50;;;9.00;;
34737;SDS011;39910;47.154;27.614;2023-02-17T02:30:27;9.98;;;9.38;;
34737;SDS011;39910;47.154;27.614;2023-02-17T02:35:22;9.45;;;8.95;;
34737;SDS011;39910;47.154;27.614;2023-02-17T02:40:15;9.68;;;9.18;;
34737;SDS011;39910;47.154;27.614;2023-02-17T02:42:41;10.38;;;9.77;;
34737;SDS011;39910;47.154;27.614;2023-02-17T02:45:08;9.55;;;9.05;;
34737;SDS011;39910;47.154;27.614;2023-02-17T02:49:59;10.00;;;9.45;;
34737;SDS011;39910;47.154;27.614;2023-02-17T02:52:47;9.30;;;8.80;;
34737;SDS011;39910;47.154;27.614;2023-02-17T03:00:37;8.77;;;8.38;;
34737;SDS011;39910;47.154;27.614;2023-02-17T03:08:32;8.70;;;8.30;;
34737;SDS011;39910;47.154;27.614;2023-02-17T03:10:59;9.68;;;9.18;;
34737;SDS011;39910;47.154;27.614;2023-02-17T03:13:24;9.30;;;8.80;;
34737;SDS011;39910;47.154;27.614;2023-02-17T03:15:50;9.35;;;8.85;;
34737;SDS011;39910;47.154;27.614;2023-02-17T03:18:15;9.25;;;8.75;;
34737;SDS011;39910;47.154;27.614;2023-02-17T03:20:45;9.63;;;9.13;;
34737;SDS011;39910;47.154;27.614;2023-02-17T03:23:12;9.32;;;8.82;;
34737;SDS011;39910;47.154;27.614;2023-02-17T03:25:38;9.32;;;8.82;;
34737;SDS011;39910;47.154;27.614;2023-02-17T03:28:03;9.05;;;8.57;;
34737;SDS011;39910;47.154;27.614;2023-02-17T03:30:30;9.00;;;8.57;;
34737;SDS011;39910;47.154;27.614;2023-02-17T03:32:55;9.18;;;8.70;;
34737;SDS011;39910;47.154;27.614;2023-02-17T03:35:20;9.30;;;8.80;;
34737;SDS011;39910;47.154;27.614;2023-02-17T03:37:46;9.55;;;9.05;;
34737;SDS011;39910;47.154;27.614;2023-02-17T03:40:12;9.35;;;8.85;;
34737;SDS011;39910;47.154;27.614;2023-02-17T03:42:37;10.75;;;10.05;;
34737;SDS011;39910;47.154;27.614;2023-02-17T03:45:03;9.85;;;9.30;;
34737;SDS011;39910;47.154;27.614;2023-02-17T03:47:28;9.95;;;9.38;;
34737;SDS011;39910;47.154;27.614;2023-02-17T03:49:53;9.15;;;8.65;;
34737;SDS011;39910;47.154;27.614;2023-02-17T03:52:19;8.90;;;8.50;;
34737;SDS011;39910;47.154;27.614;2023-02-17T03:54:44;9.02;;;8.55;;
34737;SDS011;39910;47.154;27.614;2023-02-17T03:57:09;9.32;;;8.82;;
34737;SDS011;39910;47.154;27.614;2023-02-17T03:59:35;11.40;;;10.68;;
34737;SDS011;39910;47.154;27.614;2023-02-17T04:02:01;9.00;;;8.50;;
34737;SDS011;39910;47.154;27.614;2023-02-17T04:04:26;9.32;;;8.82;;
34737;SDS011;39910;47.154;27.614;2023-02-17T04:06:51;10.00;;;9.45;;
34737;SDS011;39910;47.154;27.614;2023-02-17T04:09:17;9.32;;;8.82;;
34737;SDS011;39910;47.154;27.614;2023-02-17T04:11:42;9.05;;;8.55;;
34737;SDS011;39910;47.154;27.614;2023-02-17T04:14:08;10.23;;;9.63;;
34737;SDS011;39910;47.154;27.614;2023-02-17T04:16:34;10.18;;;9.57;;
34737;SDS011;39910;47.154;27.614;2023-02-17T04:18:59;9.80;;;9.27;;
34737;SDS011;39910;47.154;27.614;2023-02-17T04:21:25;9.25;;;8.75;;
34737;SDS011;39910;47.154;27.614;2023-02-17T04:23:50;8.95;;;8.55;;
34737;SDS011;39910;47.154;27.614;2023-02-17T04:26:19;9.95;;;9.38;;
34737;SDS011;39910;47.154;27.614;2023-02-17T04:28:44;9.95;;;9.38;;
34737;SDS011;39910;47.154;27.614;2023-02-17T04:31:10;10.20;;;9.60;;
34737;SDS011;39910;47.154;27.614;2023-02-17T04:33:36;10.48;;;9.88;;
34737;SDS011;39910;47.154;27.614;2023-02-17T04:36:02;10.18;;;9.57;;
34737;SDS011;39910;47.154;27.614;2023-02-17T04:38:28;9.98;;;9.38;;
34737;SDS011;39910;47.154;27.614;2023-02-17T04:40:54;10.10;;;9.50;;
34737;SDS011;39910;47.154;27.614;2023-02-17T04:43:20;10.15;;;9.55;;
34737;SDS011;39910;47.154;27.614;2023-02-17T04:45:45;10.55;;;9.95;;
34737;SDS011;39910;47.154;27.614;2023-02-17T04:48:10;10.25;;;9.65;;
34737;SDS011;39910;47.154;27.614;2023-02-17T04:50:36;9.95;;;9.40;;
34737;SDS011;39910;47.154;27.614;2023-02-17T04:53:01;9.48;;;8.98;;
34737;SDS011;39910;47.154;27.614;2023-02-17T04:55:26;9.90;;;9.35;;
34737;SDS011;39910;47.154;27.614;2023-02-17T04:57:53;10.00;;;9.40;;
34737;SDS011;39910;47.154;27.614;2023-02-17T05:00:19;10.10;;;9.50;;
34737;SDS011;39910;47.154;27.614;2023-02-17T05:02:44;10.20;;;9.60;;
34737;SDS011;39910;47.154;27.614;2023-02-17T05:05:09;10.63;;;10.00;;
34737;SDS011;39910;47.154;27.614;2023-02-17T05:07:39;10.40;;;9.80;;
34737;SDS011;39910;47.154;27.614;2023-02-17T05:10:04;10.10;;;9.50;;
34737;SDS011;39910;47.154;27.614;2023-02-17T05:12:30;9.55;;;9.05;;
34737;SDS011;39910;47.154;27.614;2023-02-17T05:14:55;9.65;;;9.15;;
34737;SDS011;39910;47.154;27.614;2023-02-17T05:17:20;11.68;;;10.90;;
34737;SDS011;39910;47.154;27.614;2023-02-17T05:19:46;9.88;;;9.38;;
34737;SDS011;39910;47.154;27.614;2023-02-17T05:22:11;10.45;;;9.85;;
34737;SDS011;39910;47.154;27.614;2023-02-17T05:24:36;9.80;;;9.30;;
34737;SDS011;39910;47.154;27.614;2023-02-17T05:27:02;9.52;;;9.02;;
34737;SDS011;39910;47.154;27.614;2023-02-17T05:29:27;9.63;;;9.13;;
34737;SDS011;39910;47.154;27.614;2023-02-17T05:31:52;9.85;;;9.35;;
34737;SDS011;39910;47.154;27.614;2023-02-17T05:34:17;9.68;;;9.18;;
34737;SDS011;39910;47.154;27.614;2023-02-17T05:36:43;13.15;;;12.20;;
34737;SDS011;39910;47.154;27.614;2023-02-17T05:39:08;9.32;;;8.82;;
34737;SDS011;39910;47.154;27.614;2023-02-17T05:41:34;9.38;;;8.88;;
34737;SDS011;39910;47.154;27.614;2023-02-17T05:43:59;9.20;;;8.70;;
34737;SDS011;39910;47.154;27.614;2023-02-17T05:46:25;9.05;;;8.55;;
34737;SDS011;39910;47.154;27.614;2023-02-17T05:48:50;8.95;;;8.52;;
34737;SDS011;39910;47.154;27.614;2023-02-17T05:51:15;9.23;;;8.73;;
34737;SDS011;39910;47.154;27.614;2023-02-17T05:53:41;11.07;;;10.38;;
34737;SDS011;39910;47.154;27.614;2023-02-17T05:56:07;9.68;;;9.13;;
34737;SDS011;39910;47.154;27.614;2023-02-17T05:58:32;9.05;;;8.55;;
34737;SDS011;39910;47.154;27.614;2023-02-17T06:00:57;9.50;;;9.00;;
34737;SDS011;39910;47.154;27.614;2023-02-17T06:03:23;9.10;;;8.60;;
34737;SDS011;39910;47.154;27.614;2023-02-17T06:05:48;9.35;;;8.85;;
34737;SDS011;39910;47.154;27.614;2023-02-17T06:08:13;9.57;;;9.07;;
34737;SDS011;39910;47.154;27.614;2023-02-17T06:10:40;9.27;;;8.77;;
34737;SDS011;39910;47.154;27.614;2023-02-17T06:13:05;8.32;;;7.93;;
34737;SDS011;39910;47.154;27.614;2023-02-17T06:15:30;8.90;;;8.50;;
34737;SDS011;39910;47.154;27.614;2023-02-17T06:17:56;9.73;;;9.20;;
34737;SDS011;39910;47.154;27.614;2023-02-17T06:20:21;9.07;;;8.57;;
34737;SDS011;39910;47.154;27.614;2023-02-17T06:22:46;8.73;;;8.30;;
34737;SDS011;39910;47.154;27.614;2023-02-17T06:25:11;8.73;;;8.32;;
34737;SDS011;39910;47.154;27.614;2023-02-17T06:27:37;8.88;;;8.48;;
34737;SDS011;39910;47.154;27.614;2023-02-17T06:30:02;8.25;;;7.85;;
34737;SDS011;39910;47.154;27.614;2023-02-17T06:32:27;8.43;;;8.02;;
34737;SDS011;39910;47.154;27.614;2023-02-17T06:34:54;8.50;;;8.10;;
34737;SDS011;39910;47.154;27.614;2023-02-17T06:37:20;8.60;;;8.20;;
34737;SDS011;39910;47.154;27.614;2023-02-17T06:39:45;9.07;;;8.68;;
34737;SDS011;39910;47.154;27.614;2023-02-17T06:42:10;8.75;;;8.35;;
34737;SDS011;39910;47.154;27.614;2023-02-17T06:44:35;9.27;;;8.82;;
34737;SDS011;39910;47.154;27.614;2023-02-17T06:47:01;8.90;;;8.50;;
34737;SDS011;39910;47.154;27.614;2023-02-17T06:49:26;9.05;;;8.65;;
34737;SDS011;39910;47.154;27.614;2023-02-17T06:51:51;9.35;;;8.90;;
34737;SDS011;39910;47.154;27.614;2023-02-17T06:54:17;9.60;;;9.10;;
34737;SDS011;39910;47.154;27.614;2023-02-17T06:56:42;9.88;;;9.38;;
34737;SDS011;39910;47.154;27.614;2023-02-17T06:59:07;8.68;;;8.27;;
34737;SDS011;39910;47.154;27.614;2023-02-17T07:01:33;9.10;;;8.70;;
34737;SDS011;39910;47.154;27.614;2023-02-17T07:03:58;9.18;;;8.77;;
34737;SDS011;39910;47.154;27.614;2023-02-17T07:06:25;8.43;;;8.02;;
34737;SDS011;39910;47.154;27.614;2023-02-17T07:08:50;8.55;;;8.15;;
34737;SDS011;39910;47.154;27.614;2023-02-17T07:11:16;9.30;;;8.90;;
34737;SDS011;39910;47.154;27.614;2023-02-17T07:13:42;9.20;;;8.80;;
34737;SDS011;39910;47.154;27.614;2023-02-17T07:16:10;9.20;;;8.80;;
34737;SDS011;39910;47.154;27.614;2023-02-17T07:18:35;9.20;;;8.80;;
34737;SDS011;39910;47.154;27.614;2023-02-17T07:21:02;9.70;;;9.30;;
34737;SDS011;39910;47.154;27.614;2023-02-17T07:23:29;9.43;;;9.02;;
34737;SDS011;39910;47.154;27.614;2023-02-17T07:25:54;10.00;;;9.60;;
34737;SDS011;39910;47.154;27.614;2023-02-17T07:28:19;9.55;;;9.15;;
34737;SDS011;39910;47.154;27.614;2023-02-17T07:30:44;10.10;;;9.70;;
34737;SDS011;39910;47.154;27.614;2023-02-17T07:33:10;10.10;;;9.70;;
34737;SDS011;39910;47.154;27.614;2023-02-17T07:35:41;10.40;;;9.90;;
34737;SDS011;39910;47.154;27.614;2023-02-17T07:38:10;10.25;;;9.75;;
34737;SDS011;39910;47.154;27.614;2023-02-17T07:40:36;10.30;;;9.80;;
34737;SDS011;39910;47.154;27.614;2023-02-17T07:43:02;9.60;;;9.20;;
34737;SDS011;39910;47.154;27.614;2023-02-17T07:45:27;9.82;;;9.43;;
34737;SDS011;39910;47.154;27.614;2023-02-17T07:47:53;9.70;;;9.30;;
34737;SDS011;39910;47.154;27.614;2023-02-17T07:50:18;10.50;;;10.00;;
34737;SDS011;39910;47.154;27.614;2023-02-17T07:52:44;10.25;;;9.80;;
34737;SDS011;39910;47.154;27.614;2023-02-17T07:55:10;9.90;;;9.50;;
34737;SDS011;39910;47.154;27.614;2023-02-17T07:57:35;10.40;;;9.90;;
34737;SDS011;39910;47.154;27.614;2023-02-17T08:00:01;10.25;;;9.85;;
34737;SDS011;39910;47.154;27.614;2023-02-17T08:02:26;10.27;;;9.80;;
34737;SDS011;39910;47.154;27.614;2023-02-17T08:04:52;10.30;;;9.85;;
34737;SDS011;39910;47.154;27.614;2023-02-17T08:07:17;9.90;;;9.50;;
34737;SDS011;39910;47.154;27.614;2023-02-17T08:09:42;10.30;;;9.90;;
34737;SDS011;39910;47.154;27.614;2023-02-17T08:12:26;10.13;;;9.70;;
34737;SDS011;39910;47.154;27.614;2023-02-17T08:15:11;10.43;;;9.93;;
34737;SDS011;39910;47.154;27.614;2023-02-17T08:17:36;10.43;;;9.93;;
34737;SDS011;39910;47.154;27.614;2023-02-17T08:20:02;10.50;;;10.00;;
34737;SDS011;39910;47.154;27.614;2023-02-17T08:22:27;9.98;;;9.57;;
34737;SDS011;39910;47.154;27.614;2023-02-17T08:24:52;10.20;;;9.80;;
34737;SDS011;39910;47.154;27.614;2023-02-17T08:27:18;10.32;;;9.88;;
34737;SDS011;39910;47.154;27.614;2023-02-17T08:29:44;10.60;;;10.10;;
34737;SDS011;39910;47.154;27.614;2023-02-17T08:32:09;10.27;;;9.82;;
34737;SDS011;39910;47.154;27.614;2023-02-17T08:34:35;10.07;;;9.68;;
34737;SDS011;39910;47.154;27.614;2023-02-17T08:37:01;10.57;;;10.07;;
34737;SDS011;39910;47.154;27.614;2023-02-17T08:39:27;10.48;;;9.98;;
34737;SDS011;39910;47.154;27.614;2023-02-17T08:41:53;10.60;;;10.10;;
34737;SDS011;39910;47.154;27.614;2023-02-17T08:44:18;10.75;;;10.25;;
34737;SDS011;39910;47.154;27.614;2023-02-17T08:46:45;11.20;;;10.70;;
34737;SDS011;39910;47.154;27.614;2023-02-17T08:49:12;10.90;;;10.40;;
34737;SDS011;39910;47.154;27.614;2023-02-17T08:51:37;10.60;;;10.10;;
34737;SDS011;39910;47.154;27.614;2023-02-17T08:54:03;10.80;;;10.30;;
34737;SDS011;39910;47.154;27.614;2023-02-17T08:56:30;10.40;;;9.93;;
34737;SDS011;39910;47.154;27.614;2023-02-17T08:58:55;10.35;;;9.90;;
34737;SDS011;39910;47.154;27.614;2023-02-17T09:01:21;10.60;;;10.10;;
34737;SDS011;39910;47.154;27.614;2023-02-17T09:03:47;10.10;;;9.70;;
34737;SDS011;39910;47.154;27.614;2023-02-17T09:06:12;10.40;;;9.90;;
34737;SDS011;39910;47.154;27.614;2023-02-17T09:08:39;10.20;;;9.80;;
34737;SDS011;39910;47.154;27.614;2023-02-17T09:11:05;10.50;;;10.00;;
34737;SDS011;39910;47.154;27.614;2023-02-17T09:13:30;10.18;;;9.77;;
34737;SDS011;39910;47.154;27.614;2023-02-17T09:15:56;10.52;;;10.02;;
34737;SDS011;39910;47.154;27.614;2023-02-17T09:18:22;10.20;;;9.80;;
34737;SDS011;39910;47.154;27.614;2023-02-17T09:20:47;10.10;;;9.70;;
34737;SDS011;39910;47.154;27.614;2023-02-17T09:23:13;10.80;;;10.30;;
34737;SDS011;39910;47.154;27.614;2023-02-17T09:25:38;10.52;;;10.02;;
34737;SDS011;39910;47.154;27.614;2023-02-17T09:28:04;10.00;;;9.60;;
34737;SDS011;39910;47.154;27.614;2023-02-17T09:30:29;10.45;;;9.95;;
34737;SDS011;39910;47.154;27.614;2023-02-17T09:32:55;10.00;;;9.60;;
34737;SDS011;39910;47.154;27.614;2023-02-17T09:35:20;10.60;;;10.10;;
34737;SDS011;39910;47.154;27.614;2023-02-17T09:37:45;10.70;;;10.20;;
34737;SDS011;39910;47.154;27.614;2023-02-17T09:40:16;10.80;;;10.30;;
34737;SDS011;39910;47.154;27.614;2023-02-17T09:42:42;10.70;;;10.20;;
34737;SDS011;39910;47.154;27.614;2023-02-17T09:45:11;10.20;;;9.75;;
34737;SDS011;39910;47.154;27.614;2023-02-17T09:47:42;10.88;;;10.38;;
34737;SDS011;39910;47.154;27.614;2023-02-17T09:50:16;10.30;;;9.80;;
34737;SDS011;39910;47.154;27.614;2023-02-17T09:55:27;10.05;;;9.63;;
34737;SDS011;39910;47.154;27.614;2023-02-17T09:58:16;10.30;;;9.80;;
34737;SDS011;39910;47.154;27.614;2023-02-17T10:00:44;10.80;;;10.30;;
34737;SDS011;39910;47.154;27.614;2023-02-17T10:03:30;10.63;;;10.13;;
34737;SDS011;39910;47.154;27.614;2023-02-17T10:11:27;10.02;;;9.57;;
34737;SDS011;39910;47.154;27.614;2023-02-17T10:13:54;10.73;;;10.23;;
34737;SDS011;39910;47.154;27.614;2023-02-17T10:16:26;10.00;;;9.50;;
34737;SDS011;39910;47.154;27.614;2023-02-17T10:18:59;10.70;;;10.20;;
34737;SDS011;39910;47.154;27.614;2023-02-17T10:21:30;10.25;;;9.75;;
34737;SDS011;39910;47.154;27.614;2023-02-17T10:23:56;9.75;;;9.35;;
34737;SDS011;39910;47.154;27.614;2023-02-17T10:29:27;11.10;;;10.52;;
34737;SDS011;39910;47.154;27.614;2023-02-17T10:31:46;10.00;;;9.50;;
34737;SDS011;39910;47.154;27.614;2023-02-17T10:37:09;10.27;;;9.77;;
34737;SDS011;39910;47.154;27.614;2023-02-17T10:42:00;10.90;;;10.40;;
34737;SDS011;39910;47.154;27.614;2023-02-17T10:44:26;10.35;;;9.85;;
34737;SDS011;39910;47.154;27.614;2023-02-17T10:46:52;10.40;;;9.90;;
34737;SDS011;39910;47.154;27.614;2023-02-17T10:49:25;10.80;;;10.30;;
34737;SDS011;39910;47.154;27.614;2023-02-17T10:52:19;9.30;;;8.90;;
34737;SDS011;39910;47.154;27.614;2023-02-17T10:57:32;10.13;;;9.63;;
34737;SDS011;39910;47.154;27.614;2023-02-17T11:00:00;9.90;;;9.40;;
34737;SDS011;39910;47.154;27.614;2023-02-17T11:04:56;10.10;;;9.60;;
34737;SDS011;39910;47.154;27.614;2023-02-17T11:07:39;10.10;;;9.60;;
34737;SDS011;39910;47.154;27.614;2023-02-17T11:12:52;10.23;;;9.73;;
34737;SDS011;39910;47.154;27.614;2023-02-17T11:15:21;10.40;;;9.90;;
34737;SDS011;39910;47.154;27.614;2023-02-17T11:17:47;10.10;;;9.60;;
34737;SDS011;39910;47.154;27.614;2023-02-17T11:22:39;10.35;;;9.85;;
34737;SDS011;39910;47.154;27.614;2023-02-17T11:25:17;9.90;;;9.43;;
34737;SDS011;39910;47.154;27.614;2023-02-17T11:27:48;10.65;;;10.15;;
34737;SDS011;39910;47.154;27.614;2023-02-17T11:30:14;10.50;;;10.00;;
34737;SDS011;39910;47.154;27.614;2023-02-17T11:32:40;10.40;;;9.90;;
34737;SDS011;39910;47.154;27.614;2023-02-17T11:35:16;10.40;;;9.90;;
34737;SDS011;39910;47.154;27.614;2023-02-17T11:37:44;10.02;;;9.52;;
34737;SDS011;39910;47.154;27.614;2023-02-17T11:40:21;10.70;;;10.20;;
34737;SDS011;39910;47.154;27.614;2023-02-17T11:42:53;10.63;;;10.13;;
34737;SDS011;39910;47.154;27.614;2023-02-17T11:45:19;9.88;;;9.38;;
34737;SDS011;39910;47.154;27.614;2023-02-17T11:50:29;9.50;;;9.10;;
34737;SDS011;39910;47.154;27.614;2023-02-17T12:06:08;9.93;;;9.43;;
34737;SDS011;39910;47.154;27.614;2023-02-17T12:11:15;10.23;;;9.73;;
34737;SDS011;39910;47.154;27.614;2023-02-17T12:18:52;10.23;;;9.73;;
34737;SDS011;39910;47.154;27.614;2023-02-17T12:26:40;9.75;;;9.25;;
34737;SDS011;39910;47.154;27.614;2023-02-17T12:36:57;9.88;;;9.38;;
34737;SDS011;39910;47.154;27.614;2023-02-17T12:39:34;9.80;;;9.32;;
34737;SDS011;39910;47.154;27.614;2023-02-17T12:44:50;9.95;;;9.45;;
34737;SDS011;39910;47.154;27.614;2023-02-17T12:47:27;11.35;;;10.75;;
34737;SDS011;39910;47.154;27.614;2023-02-17T12:49:55;9.60;;;9.20;;
34737;SDS011;39910;47.154;27.614;2023-02-17T12:52:40;10.38;;;9.88;;
34737;SDS011;39910;47.154;27.614;2023-02-17T12:57:53;10.13;;;9.63;;
34737;SDS011;39910;47.154;27.614;2023-02-17T13:00:23;10.20;;;9.70;;
34737;SDS011;39910;47.154;27.614;2023-02-17T13:02:49;9.93;;;9.48;;
34737;SDS011;39910;47.154;27.614;2023-02-17T13:05:21;10.30;;;9.80;;
34737;SDS011;39910;47.154;27.614;2023-02-17T13:07:58;10.30;;;9.80;;
34737;SDS011;39910;47.154;27.614;2023-02-17T13:12:57;10.10;;;9.60;;
34737;SDS011;39910;47.154;27.614;2023-02-17T13:15:27;10.20;;;9.70;;
34737;SDS011;39910;47.154;27.614;2023-02-17T13:17:54;9.90;;;9.43;;
34737;SDS011;39910;47.154;27.614;2023-02-17T13:20:27;10.55;;;10.05;;
34737;SDS011;39910;47.154;27.614;2023-02-17T13:23:57;9.73;;;9.30;;
34737;SDS011;39910;47.154;27.614;2023-02-17T13:25:59;10.57;;;10.07;;
34737;SDS011;39910;47.154;27.614;2023-02-17T13:28:32;10.05;;;9.55;;
34737;SDS011;39910;47.154;27.614;2023-02-17T13:31:06;10.60;;;10.10;;
34737;SDS011;39910;47.154;27.614;2023-02-17T13:33:38;9.40;;;9.00;;
34737;SDS011;39910;47.154;27.614;2023-02-17T13:38:57;10.05;;;9.55;;
34737;SDS011;39910;47.154;27.614;2023-02-17T13:41:24;10.52;;;10.02;;
34737;SDS011;39910;47.154;27.614;2023-02-17T13:43:50;10.02;;;9.52;;
34737;SDS011;39910;47.154;27.614;2023-02-17T13:46:20;9.63;;;9.23;;
34737;SDS011;39910;47.154;27.614;2023-02-17T13:48:56;9.40;;;9.00;;
34737;SDS011;39910;47.154;27.614;2023-02-17T13:51:26;9.38;;;8.98;;
34737;SDS011;39910;47.154;27.614;2023-02-17T13:53:51;10.15;;;9.65;;
34737;SDS011;39910;47.154;27.614;2023-02-17T13:56:24;9.90;;;9.40;;
34737;SDS011;39910;47.154;27.614;2023-02-17T13:58:50;9.85;;;9.35;;
34737;SDS011;39910;47.154;27.614;2023-02-17T14:01:17;10.00;;;9.50;;
34737;SDS011;39910;47.154;27.614;2023-02-17T14:03:47;9.57;;;9.18;;
34737;SDS011;39910;47.154;27.614;2023-02-17T14:08:52;9.45;;;9.05;;
34737;SDS011;39910;47.154;27.614;2023-02-17T14:11:20;9.50;;;9.10;;
34737;SDS011;39910;47.154;27.614;2023-02-17T14:13:47;10.35;;;9.85;;
34737;SDS011;39910;47.154;27.614;2023-02-17T14:16:54;10.38;;;9.88;;
34737;SDS011;39910;47.154;27.614;2023-02-17T14:19:15;10.23;;;9.73;;
34737;SDS011;39910;47.154;27.614;2023-02-17T14:21:42;10.00;;;9.50;;
34737;SDS011;39910;47.154;27.614;2023-02-17T14:24:24;9.63;;;9.20;;
34737;SDS011;39910;47.154;27.614;2023-02-17T14:26:49;10.00;;;9.50;;
34737;SDS011;39910;47.154;27.614;2023-02-17T14:29:14;9.73;;;9.27;;
34737;SDS011;39910;47.154;27.614;2023-02-17T14:31:42;9.82;;;9.32;;
34737;SDS011;39910;47.154;27.614;2023-02-17T14:34:12;10.15;;;9.65;;
34737;SDS011;39910;47.154;27.614;2023-02-17T14:36:38;10.18;;;9.68;;
34737;SDS011;39910;47.154;27.614;2023-02-17T14:39:05;9.27;;;8.88;;
34737;SDS011;39910;47.154;27.614;2023-02-17T14:41:30;9.93;;;9.43;;
34737;SDS011;39910;47.154;27.614;2023-02-17T14:43:57;10.05;;;9.55;;
34737;SDS011;39910;47.154;27.614;2023-02-17T14:46:22;10.05;;;9.55;;
34737;SDS011;39910;47.154;27.614;2023-02-17T14:48:48;9.18;;;8.77;;
34737;SDS011;39910;47.154;27.614;2023-02-17T14:51:15;9.60;;;9.20;;
34737;SDS011;39910;47.154;27.614;2023-02-17T14:53:41;10.32;;;9.82;;
34737;SDS011;39910;47.154;27.614;2023-02-17T14:58:37;9.90;;;9.40;;
34737;SDS011;39910;47.154;27.614;2023-02-17T15:01:03;11.15;;;10.55;;
34737;SDS011;39910;47.154;27.614;2023-02-17T15:03:29;11.90;;;11.25;;
34737;SDS011;39910;47.154;27.614;2023-02-17T15:05:56;10.45;;;9.95;;
34737;SDS011;39910;47.154;27.614;2023-02-17T15:08:28;10.55;;;10.05;;
34737;SDS011;39910;47.154;27.614;2023-02-17T15:10:54;10.10;;;9.60;;
34737;SDS011;39910;47.154;27.614;2023-02-17T15:13:20;10.20;;;9.70;;
34737;SDS011;39910;47.154;27.614;2023-02-17T15:15:45;10.85;;;10.30;;
34737;SDS011;39910;47.154;27.614;2023-02-17T15:18:15;9.90;;;9.40;;
34737;SDS011;39910;47.154;27.614;2023-02-17T15:20:42;9.40;;;9.00;;
34737;SDS011;39910;47.154;27.614;2023-02-17T15:23:15;9.90;;;9.40;;
34737;SDS011;39910;47.154;27.614;2023-02-17T15:25:42;10.55;;;10.05;;
34737;SDS011;39910;47.154;27.614;2023-02-17T15:28:10;10.00;;;9.50;;
34737;SDS011;39910;47.154;27.614;2023-02-17T15:30:36;10.55;;;10.05;;
34737;SDS011;39910;47.154;27.614;2023-02-17T15:33:01;9.52;;;9.13;;
34737;SDS011;39910;47.154;27.614;2023-02-17T15:35:27;10.20;;;9.70;;
34737;SDS011;39910;47.154;27.614;2023-02-17T15:37:52;10.07;;;9.57;;
34737;SDS011;39910;47.154;27.614;2023-02-17T15:40:19;9.32;;;8.93;;
34737;SDS011;39910;47.154;27.614;2023-02-17T15:42:45;10.82;;;10.23;;
34737;SDS011;39910;47.154;27.614;2023-02-17T15:45:16;9.82;;;9.32;;
34737;SDS011;39910;47.154;27.614;2023-02-17T15:47:43;10.60;;;10.07;;
34737;SDS011;39910;47.154;27.614;2023-02-17T15:50:16;10.68;;;10.13;;
34737;SDS011;39910;47.154;27.614;2023-02-17T15:52:44;10.98;;;10.38;;
34737;SDS011;39910;47.154;27.614;2023-02-17T15:55:10;10.45;;;9.95;;
34737;SDS011;39910;47.154;27.614;2023-02-17T15:57:35;10.10;;;9.60;;
34737;SDS011;39910;47.154;27.614;2023-02-17T16:00:04;9.88;;;9.38;;
34737;SDS011;39910;47.154;27.614;2023-02-17T16:02:30;10.32;;;9.82;;
34737;SDS011;39910;47.154;27.614;2023-02-17T16:04:56;10.15;;;9.65;;
34737;SDS011;39910;47.154;27.614;2023-02-17T16:07:22;9.85;;;9.35;;
34737;SDS011;39910;47.154;27.614;2023-02-17T16:09:47;10.75;;;10.18;;
34737;SDS011;39910;47.154;27.614;2023-02-17T16:12:14;9.80;;;9.30;;
34737;SDS011;39910;47.154;27.614;2023-02-17T16:14:40;9.82;;;9.32;;
34737;SDS011;39910;47.154;27.614;2023-02-17T16:17:09;9.80;;;9.30;;